Airfield :
LOGIN :

Register | Disclaimer

   EN    FR    IT 

 










Legend :    VFR   Marginal VFR   IFR   Intensive IFR   Very Intensive IFR
Visi :
Ceiling :
>= 8 km
>= 3000ft
5 to 8 km
1000 to 3000 ft
1500m to 5 km
500 to 1000 ft
800 to 1500m
200 to 500 ft
< 800m
< 200 ft
Symbols :   Thunderstorms  Fog  Heavy snow  Heavy precipitations  Wind > 20 kt
SIGMETs :     Misc.  Thunderstorms  Icing  Turbulence  Mountain Waves  Volcanic Ashes







- Airport Elevation : 776 ft
- IATA code : RMS


ETAR - Ramstein Air Base

CURRENT METAR :
  • 190656Z 00000KT 9999 CLR 06/06 A2993 RMK AO2A SLP144 T00620062 $

EXPIRED METARs :
  • 190556Z 00000KT 9999 CLR 05/05 A2993 RMK AO2A SLP144 T00520052 10064 20037 58002 $
  • 190456Z 00000KT 9999 CLR 05/05 A2993 RMK AO2A SLP142 T00520052 $

TAF TAF ETAR
Valid from the 19 at 02:00 until the 20 at 08:00 UTC


190200Z 1902/2008 VRB06KT 6000 BR SKC QNH2988INS
BECMG 1907/1908 20006KT 9999 NSW SCT100 QNH2983INS
BECMG 1920/1921 VRB06KT 8000 BR SCT080 BKN100 QNH2980INS
BECMG 2006/2007 22009KT 9999 NSW SCT030 BKN080 OVC100 610809 QNH2979INS TX20/1913Z TN02/1903Z
No reported NOTAMs for that airfield.



MET'MAP, your aeronautical weather chart ! - Copyright ORBIFLY December 2007 - Disclaimer

ORBIFLY MET'MAP TEAM :

Programming & Development : Alexandra Zaïnal
Concept & Development : Baudouin d'Aumeries
Co-Development & Prog : Marc-Olivier Méhu
Technical & hardware support : Manuel Goepfert

Contact : metmap@orbifly.com




SOURCES & CREDITS :

   NOAA